Time;durP1;ratioP1;P1;durP2;ratioP2;P2;SDS_P1;SDS_P2;PMS_P1;PMS_P2;Temp;Humidity;BMP_temperature;BMP_pressure;BME280_temperature;BME280_humidity;BME280_pressure;Samples;Min_cycle;Max_cycle;Signal;HPM_P1;HPM_P2
2021/05/14 00:00:38;;;;;;;2.83;1.55;;;;;;;;;;1484927;40;20033;-63
2021/05/14 00:01:39;;;;;;;2.67;1.55;;;;;;;;;;1484813;40;20041;-63
2021/05/14 00:02:40;;;;;;;3.28;1.52;;;;;;;;;;1484524;40;20060;-64
2021/05/14 00:03:41;;;;;;;2.28;1.42;;;;;;;;;;1484945;40;20031;-64
2021/05/14 00:04:42;;;;;;;2.47;1.58;;;;;;;;;;1484627;40;20040;-64
2021/05/14 00:05:50;;;;;;;2.20;1.65;;;;;;;;;;1484831;40;20044;-63
2021/05/14 00:06:51;;;;;;;2.83;1.90;;;;;;;;;;1484627;40;20041;-63
2021/05/14 00:07:52;;;;;;;2.88;1.60;;;;;;;;;;1484649;40;20065;-63
2021/05/14 00:08:54;;;;;;;2.80;1.55;;;;;;;;;;1484600;40;20489;-63
2021/05/14 00:09:55;;;;;;;4.05;1.92;;;;;;;;;;1484611;40;20036;-64
2021/05/14 00:10:56;;;;;;;2.63;1.45;;;;;;;;;;1484773;40;20028;-63
2021/05/14 00:11:57;;;;;;;4.50;1.65;;;;;;;;;;1484745;40;20035;-64
2021/05/14 00:12:58;;;;;;;2.78;1.67;;;;;;;;;;1484547;40;20067;-63
2021/05/14 00:13:59;;;;;;;3.55;1.58;;;;;;;;;;1484646;40;20044;-64
2021/05/14 00:15:00;;;;;;;2.03;1.40;;;;;;;;;;1484658;40;20369;-63
2021/05/14 00:16:04;;;;;;;2.30;1.60;;;;;;;;;;1484764;40;20068;-63
2021/05/14 00:17:05;;;;;;;3.13;1.77;;;;;;;;;;1484608;40;20045;-64
2021/05/14 00:18:06;;;;;;;3.60;1.50;;;;;;;;;;1484838;40;20041;-63
2021/05/14 00:19:07;;;;;;;3.20;1.65;;;;;;;;;;1484573;40;20025;-63
2021/05/14 00:20:09;;;;;;;3.80;1.50;;;;;;;;;;1484554;40;20415;-63
2021/05/14 00:21:11;;;;;;;3.97;1.58;;;;;;;;;;1484535;40;20488;-63
2021/05/14 00:22:11;;;;;;;3.67;1.50;;;;;;;;;;1484534;40;20025;-64
2021/05/14 00:23:13;;;;;;;3.33;1.33;;;;;;;;;;1484575;40;20037;-64
2021/05/14 00:24:14;;;;;;;2.75;1.50;;;;;;;;;;1484608;40;20032;-64
2021/05/14 00:25:16;;;;;;;3.28;1.52;;;;;;;;;;1484783;40;20040;-64
2021/05/14 00:26:17;;;;;;;3.00;1.55;;;;;;;;;;1484595;40;20029;-63
2021/05/14 00:27:18;;;;;;;2.22;1.50;;;;;;;;;;1484747;40;20029;-64
2021/05/14 00:28:19;;;;;;;2.28;1.60;;;;;;;;;;1484581;40;20029;-64
2021/05/14 00:29:20;;;;;;;4.43;1.65;;;;;;;;;;1484734;40;20037;-64
2021/05/14 00:30:22;;;;;;;2.22;1.60;;;;;;;;;;1484549;40;20468;-63
2021/05/14 00:31:24;;;;;;;2.50;1.60;;;;;;;;;;1484520;40;20321;-64
2021/05/14 00:32:25;;;;;;;3.05;1.50;;;;;;;;;;1484484;40;20021;-64
2021/05/14 00:33:26;;;;;;;2.67;1.67;;;;;;;;;;1484737;40;20028;-64
2021/05/14 00:34:27;;;;;;;2.47;1.50;;;;;;;;;;1484731;40;20114;-64
2021/05/14 00:35:28;;;;;;;3.05;1.52;;;;;;;;;;1484761;40;20129;-63
2021/05/14 00:36:29;;;;;;;3.28;1.48;;;;;;;;;;1484735;40;20029;-64
2021/05/14 00:37:30;;;;;;;2.83;1.42;;;;;;;;;;1484728;40;20033;-63
2021/05/14 00:38:31;;;;;;;2.35;1.35;;;;;;;;;;1484473;40;20032;-64
2021/05/14 00:39:33;;;;;;;2.95;1.60;;;;;;;;;;1484733;40;20035;-64
2021/05/14 00:40:34;;;;;;;2.90;1.67;;;;;;;;;;1484694;40;20025;-63
2021/05/14 00:41:35;;;;;;;2.35;1.40;;;;;;;;;;1484680;40;20031;-64
2021/05/14 00:42:37;;;;;;;2.80;1.70;;;;;;;;;;1484430;40;20055;-63
2021/05/14 00:43:37;;;;;;;3.17;1.33;;;;;;;;;;1484673;40;20036;-63
2021/05/14 00:44:43;;;;;;;3.58;1.80;;;;;;;;;;1484696;40;20033;-63
2021/05/14 00:45:45;;;;;;;2.83;1.50;;;;;;;;;;1484566;40;20122;-63
2021/05/14 00:46:45;;;;;;;2.30;1.42;;;;;;;;;;1484543;40;20284;-64
2021/05/14 00:47:47;;;;;;;2.78;1.60;;;;;;;;;;1484721;40;20039;-64
2021/05/14 00:48:47;;;;;;;2.85;1.60;;;;;;;;;;1484500;40;20315;-63
2021/05/14 00:49:49;;;;;;;3.67;1.60;;;;;;;;;;1484485;40;20025;-64
2021/05/14 00:50:50;;;;;;;2.15;1.35;;;;;;;;;;1484683;40;20040;-64
2021/05/14 00:51:54;;;;;;;4.75;1.40;;;;;;;;;;1484667;40;20029;-64
2021/05/14 00:52:54;;;;;;;2.75;1.40;;;;;;;;;;1484469;40;20079;-64
2021/05/14 00:53:56;;;;;;;2.83;1.58;;;;;;;;;;1484574;40;20040;-64
2021/05/14 00:54:57;;;;;;;3.00;1.50;;;;;;;;;;1484664;40;20028;-64
2021/05/14 00:55:59;;;;;;;2.40;1.63;;;;;;;;;;1484671;40;20033;-64
2021/05/14 00:57:00;;;;;;;2.83;1.40;;;;;;;;;;1484478;40;20033;-64
2021/05/14 00:58:01;;;;;;;2.70;1.30;;;;;;;;;;1484751;40;20024;-63
2021/05/14 00:59:03;;;;;;;2.30;1.35;;;;;;;;;;1484479;40;20037;-64
2021/05/14 01:00:06;;;;;;;2.78;1.42;;;;;;;;;;1484633;40;20036;-64
2021/05/14 01:01:06;;;;;;;2.05;1.10;;;;;;;;;;1484490;40;20069;-64
2021/05/14 01:02:08;;;;;;;2.70;1.42;;;;;;;;;;1484561;40;20438;-63
2021/05/14 01:03:13;;;;;;;2.08;1.48;;;;;;;;;;1484427;40;20040;-64
2021/05/14 01:04:15;;;;;;;2.80;1.65;;;;;;;;;;1484454;40;20036;-63
2021/05/14 01:05:16;;;;;;;2.63;1.55;;;;;;;;;;1484654;40;20025;-63
2021/05/14 01:06:17;;;;;;;2.70;1.52;;;;;;;;;;1484418;40;20042;-63
2021/05/14 01:07:18;;;;;;;5.15;1.60;;;;;;;;;;1484217;40;20044;-64
2021/05/14 01:08:19;;;;;;;2.60;1.33;;;;;;;;;;1484513;40;20047;-64
2021/05/14 01:09:20;;;;;;;3.45;1.30;;;;;;;;;;1484418;40;20024;-63
2021/05/14 01:10:22;;;;;;;3.38;1.42;;;;;;;;;;1484628;40;20032;-63
2021/05/14 01:11:24;;;;;;;3.17;1.30;;;;;;;;;;1484446;40;20295;-64
2021/05/14 01:12:24;;;;;;;2.30;1.70;;;;;;;;;;1484539;40;20032;-64
2021/05/14 01:13:26;;;;;;;2.20;1.48;;;;;;;;;;1484481;40;20084;-64
2021/05/14 01:14:27;;;;;;;2.20;1.33;;;;;;;;;;1484461;40;20055;-63
2021/05/14 01:15:28;;;;;;;3.65;1.80;;;;;;;;;;1484501;40;20392;-64
2021/05/14 01:16:29;;;;;;;3.10;1.25;;;;;;;;;;1484612;40;20029;-63
2021/05/14 01:17:31;;;;;;;2.10;1.27;;;;;;;;;;1484429;40;20304;-63
2021/05/14 01:18:32;;;;;;;3.88;1.60;;;;;;;;;;1484596;40;20029;-63
2021/05/14 01:19:33;;;;;;;3.05;1.58;;;;;;;;;;1484401;40;20029;-63
2021/05/14 01:20:35;;;;;;;3.10;1.50;;;;;;;;;;1484517;40;20033;-64
2021/05/14 01:21:36;;;;;;;2.67;1.52;;;;;;;;;;1484435;40;20277;-64
2021/05/14 01:22:38;;;;;;;3.75;1.40;;;;;;;;;;1484323;40;20292;-64
2021/05/14 01:23:39;;;;;;;2.15;1.52;;;;;;;;;;1484394;40;20037;-64
2021/05/14 01:24:40;;;;;;;3.22;1.40;;;;;;;;;;1484659;40;20035;-63
2021/05/14 01:25:41;;;;;;;2.00;1.23;;;;;;;;;;1484357;40;20028;-64
2021/05/14 01:26:42;;;;;;;2.40;1.40;;;;;;;;;;1484579;40;20033;-64
2021/05/14 01:27:43;;;;;;;2.97;1.50;;;;;;;;;;1484569;40;20389;-64
2021/05/14 01:28:45;;;;;;;3.10;1.77;;;;;;;;;;1484541;40;20029;-64
2021/05/14 01:29:46;;;;;;;3.65;1.50;;;;;;;;;;1484575;40;20036;-63
2021/05/14 01:30:47;;;;;;;2.55;1.33;;;;;;;;;;1484592;40;20035;-64
2021/05/14 01:31:49;;;;;;;2.63;1.30;;;;;;;;;;1484357;40;20407;-64
2021/05/14 01:32:50;;;;;;;3.20;1.27;;;;;;;;;;1484368;40;20393;-64
2021/05/14 01:33:51;;;;;;;2.53;1.30;;;;;;;;;;1484562;40;20037;-63
2021/05/14 01:34:52;;;;;;;3.70;1.50;;;;;;;;;;1484511;40;20032;-64
2021/05/14 01:35:54;;;;;;;2.85;1.38;;;;;;;;;;1484640;40;20044;-63
2021/05/14 01:36:55;;;;;;;3.20;1.65;;;;;;;;;;1484376;40;20031;-63
2021/05/14 01:37:57;;;;;;;2.60;1.50;;;;;;;;;;1484423;40;20028;-63
2021/05/14 01:39:05;;;;;;;3.28;1.13;;;;;;;;;;1484427;40;20114;-63
2021/05/14 01:40:08;;;;;;;2.58;1.50;;;;;;;;;;1484631;40;20029;-63
2021/05/14 01:41:09;;;;;;;2.58;1.20;;;;;;;;;;1484424;40;20307;-63
2021/05/14 01:42:10;;;;;;;2.67;1.35;;;;;;;;;;1484307;40;20029;-63
2021/05/14 01:43:11;;;;;;;3.28;1.60;;;;;;;;;;1484299;40;20044;-63
2021/05/14 01:44:12;;;;;;;3.78;1.50;;;;;;;;;;1484398;40;20403;-63
2021/05/14 01:45:13;;;;;;;1.90;1.40;;;;;;;;;;1484299;40;20086;-63
2021/05/14 01:46:15;;;;;;;2.15;1.35;;;;;;;;;;1484545;40;20118;-63
2021/05/14 01:47:16;;;;;;;1.80;1.10;;;;;;;;;;1484487;40;20024;-63
2021/05/14 01:48:18;;;;;;;2.00;1.33;;;;;;;;;;1484493;40;20033;-63
2021/05/14 01:49:19;;;;;;;2.83;1.45;;;;;;;;;;1484358;40;20388;-63
2021/05/14 01:50:20;;;;;;;1.75;1.25;;;;;;;;;;1484410;40;20054;-63
2021/05/14 01:51:22;;;;;;;2.53;1.48;;;;;;;;;;1484483;40;20032;-63
2021/05/14 01:52:24;;;;;;;2.42;1.40;;;;;;;;;;1484586;40;20045;-63
2021/05/14 01:53:25;;;;;;;2.85;1.27;;;;;;;;;;1484499;40;20373;-63
2021/05/14 01:54:26;;;;;;;2.20;1.45;;;;;;;;;;1484303;40;20037;-63
2021/05/14 01:55:27;;;;;;;2.30;1.50;;;;;;;;;;1484285;40;20347;-63
2021/05/14 01:56:29;;;;;;;3.28;1.40;;;;;;;;;;1484300;40;20033;-63
2021/05/14 01:57:30;;;;;;;3.65;1.58;;;;;;;;;;1484514;40;20033;-63
2021/05/14 01:58:32;;;;;;;2.08;1.50;;;;;;;;;;1484470;40;20028;-63
2021/05/14 01:59:33;;;;;;;2.72;1.50;;;;;;;;;;1484268;40;20035;-63
2021/05/14 02:00:35;;;;;;;2.97;1.65;;;;;;;;;;1484356;40;20036;-63
2021/05/14 02:01:36;;;;;;;4.07;1.50;;;;;;;;;;1484440;40;20036;-63
2021/05/14 02:02:37;;;;;;;2.42;1.50;;;;;;;;;;1484142;40;20033;-63
2021/05/14 02:03:38;;;;;;;2.58;1.30;;;;;;;;;;1484496;40;20029;-63
2021/05/14 02:04:39;;;;;;;2.20;1.33;;;;;;;;;;1484253;40;20036;-63
2021/05/14 02:05:40;;;;;;;3.55;1.42;;;;;;;;;;1484457;40;20041;-63
2021/05/14 02:06:42;;;;;;;2.53;1.73;;;;;;;;;;1484257;40;20396;-63
2021/05/14 02:07:43;;;;;;;2.08;1.35;;;;;;;;;;1484469;40;20039;-63
2021/05/14 02:08:45;;;;;;;3.70;1.20;;;;;;;;;;1484417;40;20358;-63
2021/05/14 02:09:46;;;;;;;2.53;1.48;;;;;;;;;;1484474;40;20044;-63
2021/05/14 02:10:49;;;;;;;4.00;1.45;;;;;;;;;;1484230;40;20032;-63
2021/05/14 02:11:51;;;;;;;3.17;1.20;;;;;;;;;;1484265;40;20292;-63
2021/05/14 02:12:51;;;;;;;2.90;1.25;;;;;;;;;;1484380;40;20040;-63
2021/05/14 02:13:53;;;;;;;2.80;1.40;;;;;;;;;;1484239;40;20382;-63
2021/05/14 02:14:53;;;;;;;2.08;1.20;;;;;;;;;;1484310;40;20028;-63
2021/05/14 02:15:55;;;;;;;2.40;1.40;;;;;;;;;;1484268;40;20117;-63
2021/05/14 02:16:56;;;;;;;3.05;1.70;;;;;;;;;;1484311;40;20269;-64
2021/05/14 02:17:57;;;;;;;2.40;1.30;;;;;;;;;;1484388;40;20067;-63
2021/05/14 02:18:58;;;;;;;2.45;1.45;;;;;;;;;;1484486;40;20296;-63
2021/05/14 02:19:59;;;;;;;2.58;1.30;;;;;;;;;;1485095;40;20025;-63
2021/05/14 02:21:00;;;;;;;3.45;1.40;;;;;;;;;;1485062;40;20029;-63
2021/05/14 02:22:03;;;;;;;3.35;1.70;;;;;;;;;;1484857;40;20336;-63
2021/05/14 02:23:03;;;;;;;3.08;1.40;;;;;;;;;;1484917;40;20048;-63
2021/05/14 02:24:06;;;;;;;3.03;1.15;;;;;;;;;;1484913;40;20392;-63
2021/05/14 02:25:08;;;;;;;2.72;1.20;;;;;;;;;;1484838;40;20032;-63
2021/05/14 02:26:09;;;;;;;4.50;1.30;;;;;;;;;;1484860;40;20033;-63
2021/05/14 02:27:10;;;;;;;1.98;1.10;;;;;;;;;;1484816;40;20040;-63
2021/05/14 02:28:11;;;;;;;2.05;1.20;;;;;;;;;;1485047;40;20028;-64
2021/05/14 02:29:12;;;;;;;4.40;1.30;;;;;;;;;;1484998;40;20029;-63
2021/05/14 02:30:14;;;;;;;2.28;1.33;;;;;;;;;;1484922;40;20025;-63
2021/05/14 02:31:15;;;;;;;2.78;1.30;;;;;;;;;;1484917;40;20025;-63
2021/05/14 02:32:17;;;;;;;2.78;1.45;;;;;;;;;;1485073;40;20028;-63
2021/05/14 02:33:17;;;;;;;3.60;1.63;;;;;;;;;;1484776;40;20392;-63
2021/05/14 02:34:19;;;;;;;2.17;1.20;;;;;;;;;;1485068;40;20029;-63
2021/05/14 02:35:19;;;;;;;2.40;1.17;;;;;;;;;;1484828;40;20485;-63
2021/05/14 02:36:21;;;;;;;2.30;1.27;;;;;;;;;;1484882;40;20037;-64
2021/05/14 02:37:23;;;;;;;1.83;1.20;;;;;;;;;;1484985;40;20045;-63
2021/05/14 02:38:24;;;;;;;3.35;1.27;;;;;;;;;;1484887;40;20398;-63
2021/05/14 02:39:25;;;;;;;4.45;1.42;;;;;;;;;;1484904;40;20025;-63
2021/05/14 02:40:26;;;;;;;2.85;1.40;;;;;;;;;;1485096;40;20036;-63
2021/05/14 02:41:27;;;;;;;2.63;1.10;;;;;;;;;;1484983;40;20032;-63
2021/05/14 02:42:29;;;;;;;2.60;1.30;;;;;;;;;;1484913;40;20029;-63
2021/05/14 02:43:30;;;;;;;3.60;1.48;;;;;;;;;;1484882;40;20032;-64
2021/05/14 02:44:31;;;;;;;4.05;1.40;;;;;;;;;;1485008;40;20032;-63
2021/05/14 02:45:32;;;;;;;2.47;1.40;;;;;;;;;;1484837;40;20299;-64
2021/05/14 02:46:34;;;;;;;3.05;1.13;;;;;;;;;;1485021;40;20033;-63
2021/05/14 02:47:35;;;;;;;2.33;1.42;;;;;;;;;;1484803;40;20406;-63
2021/05/14 02:48:37;;;;;;;2.55;1.30;;;;;;;;;;1484830;40;20024;-63
2021/05/14 02:49:38;;;;;;;2.13;1.30;;;;;;;;;;1485032;40;20029;-63
2021/05/14 02:50:39;;;;;;;2.42;1.30;;;;;;;;;;1484911;40;20332;-63
2021/05/14 02:51:40;;;;;;;1.80;1.23;;;;;;;;;;1484979;40;20040;-64
2021/05/14 02:52:42;;;;;;;2.10;1.20;;;;;;;;;;1484666;40;20296;-63
2021/05/14 02:53:43;;;;;;;2.08;1.30;;;;;;;;;;1485004;40;20029;-63
2021/05/14 02:54:44;;;;;;;1.90;0.95;;;;;;;;;;1484977;40;20029;-63
2021/05/14 02:55:45;;;;;;;2.38;1.08;;;;;;;;;;1484869;40;20035;-63
2021/05/14 02:56:59;;;;;;;1.67;1.13;;;;;;;;;;1484999;40;20028;-63
2021/05/14 02:57:59;;;;;;;2.13;1.10;;;;;;;;;;1484838;40;20025;-64
2021/05/14 02:59:01;;;;;;;2.10;1.17;;;;;;;;;;1485096;40;20040;-63
2021/05/14 03:00:03;;;;;;;2.30;1.05;;;;;;;;;;1484754;40;20036;-63
2021/05/14 03:01:06;;;;;;;2.15;1.30;;;;;;;;;;1484844;40;20055;-63
2021/05/14 03:02:07;;;;;;;4.70;1.33;;;;;;;;;;1485025;40;20031;-64
2021/05/14 03:03:08;;;;;;;2.80;1.15;;;;;;;;;;1484681;40;20447;-63
2021/05/14 03:04:09;;;;;;;2.20;1.20;;;;;;;;;;1484804;40;20299;-64
2021/05/14 03:05:11;;;;;;;3.15;1.30;;;;;;;;;;1484943;40;20036;-63
2021/05/14 03:06:12;;;;;;;2.08;1.10;;;;;;;;;;1484738;40;20403;-64
2021/05/14 03:07:14;;;;;;;1.88;1.20;;;;;;;;;;1484744;40;20045;-63
2021/05/14 03:08:15;;;;;;;2.25;1.25;;;;;;;;;;1484833;40;20303;-63
2021/05/14 03:09:17;;;;;;;2.72;1.30;;;;;;;;;;1484796;40;20029;-63
2021/05/14 03:10:18;;;;;;;2.65;1.38;;;;;;;;;;1484927;40;20024;-63
2021/05/14 03:11:19;;;;;;;3.05;1.10;;;;;;;;;;1484924;40;20033;-64
2021/05/14 03:12:20;;;;;;;3.08;1.20;;;;;;;;;;1484959;40;20040;-63
2021/05/14 03:13:21;;;;;;;2.03;1.30;;;;;;;;;;1484858;40;20029;-64
2021/05/14 03:14:22;;;;;;;1.35;0.93;;;;;;;;;;1484733;40;20029;-63
2021/05/14 03:15:23;;;;;;;2.88;1.40;;;;;;;;;;1484949;40;20114;-63
2021/05/14 03:16:25;;;;;;;2.95;1.10;;;;;;;;;;1484690;40;20032;-64
2021/05/14 03:17:26;;;;;;;1.95;1.20;;;;;;;;;;1484928;40;20076;-64
2021/05/14 03:18:27;;;;;;;4.05;1.20;;;;;;;;;;1484958;40;20024;-63
2021/05/14 03:19:28;;;;;;;2.33;1.13;;;;;;;;;;1484870;40;20035;-63
2021/05/14 03:20:29;;;;;;;2.10;1.20;;;;;;;;;;1484719;40;20036;-64
2021/05/14 03:21:31;;;;;;;2.28;1.30;;;;;;;;;;1484927;40;20025;-64
2021/05/14 03:22:32;;;;;;;2.30;1.20;;;;;;;;;;1484793;40;20035;-64
2021/05/14 03:23:34;;;;;;;2.15;1.20;;;;;;;;;;1484778;40;20029;-64
2021/05/14 03:24:35;;;;;;;1.67;1.00;;;;;;;;;;1484863;40;20037;-63
2021/05/14 03:25:37;;;;;;;2.42;1.40;;;;;;;;;;1484868;40;20033;-63
2021/05/14 03:26:37;;;;;;;1.70;1.00;;;;;;;;;;1484779;40;20021;-63
2021/05/14 03:27:39;;;;;;;2.75;1.33;;;;;;;;;;1484902;40;20407;-63
2021/05/14 03:28:40;;;;;;;2.60;1.17;;;;;;;;;;1484698;40;20277;-64
2021/05/14 03:29:42;;;;;;;2.90;1.30;;;;;;;;;;1484465;40;20114;-63
2021/05/14 03:30:43;;;;;;;1.80;1.10;;;;;;;;;;1484709;40;20410;-63
2021/05/14 03:31:44;;;;;;;2.10;1.10;;;;;;;;;;1484818;40;20032;-63
2021/05/14 03:32:45;;;;;;;2.42;1.30;;;;;;;;;;1484820;40;20029;-64
2021/05/14 03:33:47;;;;;;;3.20;1.50;;;;;;;;;;1484729;40;20029;-63
2021/05/14 03:34:48;;;;;;;2.58;1.10;;;;;;;;;;1484719;40;20065;-64
2021/05/14 03:35:50;;;;;;;2.47;0.90;;;;;;;;;;1484837;40;20028;-64
2021/05/14 03:36:51;;;;;;;1.90;0.98;;;;;;;;;;1484844;40;20181;-64
2021/05/14 03:37:52;;;;;;;3.00;1.10;;;;;;;;;;1484726;40;20028;-63
2021/05/14 03:38:55;;;;;;;3.35;1.40;;;;;;;;;;1484632;40;20033;-63
2021/05/14 03:40:02;;;;;;;2.28;1.00;;;;;;;;;;1484674;40;20117;-64
2021/05/14 03:41:17;;;;;;;2.45;1.52;;;;;;;;;;1484895;40;20069;-63
2021/05/14 03:42:23;;;;;;;1.58;1.00;;;;;;;;;;1484902;40;20028;-64
2021/05/14 03:43:24;;;;;;;3.45;1.27;;;;;;;;;;1484866;40;20151;-63
2021/05/14 03:44:25;;;;;;;2.17;1.17;;;;;;;;;;1484655;40;20033;-63
2021/05/14 03:45:27;;;;;;;2.00;1.00;;;;;;;;;;1484670;40;20028;-63
2021/05/14 03:46:28;;;;;;;1.52;1.02;;;;;;;;;;1484708;40;20047;-64
2021/05/14 03:47:30;;;;;;;2.88;1.40;;;;;;;;;;1484865;40;20032;-63
2021/05/14 03:48:30;;;;;;;5.97;1.23;;;;;;;;;;1484607;40;20025;-64
2021/05/14 03:49:34;;;;;;;3.13;1.30;;;;;;;;;;1484811;40;20040;-63
2021/05/14 03:50:35;;;;;;;6.93;1.23;;;;;;;;;;1484621;40;20028;-64
2021/05/14 03:51:37;;;;;;;3.45;1.13;;;;;;;;;;1484894;40;20036;-63
2021/05/14 03:52:38;;;;;;;3.80;1.20;;;;;;;;;;1484674;40;20094;-64
2021/05/14 03:53:40;;;;;;;1.98;1.17;;;;;;;;;;1484913;40;20032;-63
2021/05/14 03:54:42;;;;;;;2.95;1.20;;;;;;;;;;1484841;40;20113;-63
2021/05/14 03:55:44;;;;;;;3.85;1.20;;;;;;;;;;1484865;40;20029;-63
2021/05/14 03:56:45;;;;;;;3.65;1.10;;;;;;;;;;1484716;40;20025;-64
2021/05/14 03:57:46;;;;;;;1.73;0.90;;;;;;;;;;1484835;40;20403;-63
2021/05/14 03:58:47;;;;;;;2.97;1.00;;;;;;;;;;1484660;40;20113;-63
2021/05/14 03:59:48;;;;;;;2.45;1.15;;;;;;;;;;1484821;40;20041;-63
2021/05/14 04:00:50;;;;;;;3.45;1.40;;;;;;;;;;1484655;40;20392;-64
2021/05/14 04:01:51;;;;;;;2.75;1.08;;;;;;;;;;1484703;40;20028;-64
2021/05/14 04:02:52;;;;;;;2.67;1.17;;;;;;;;;;1484602;40;20041;-63
2021/05/14 04:03:53;;;;;;;2.55;0.90;;;;;;;;;;1484756;40;20029;-63
2021/05/14 04:04:55;;;;;;;3.88;1.33;;;;;;;;;;1484642;40;20028;-63
2021/05/14 04:05:56;;;;;;;2.03;1.13;;;;;;;;;;1484796;40;20041;-63
2021/05/14 04:06:59;;;;;;;1.77;1.10;;;;;;;;;;1484599;40;20055;-63
2021/05/14 04:08:01;;;;;;;3.25;1.05;;;;;;;;;;1484591;40;20444;-63
2021/05/14 04:09:03;;;;;;;1.77;1.10;;;;;;;;;;1484727;40;20032;-63
2021/05/14 04:10:12;;;;;;;2.55;1.00;;;;;;;;;;1484760;40;20024;-63
2021/05/14 04:15:11;;;;;;;3.63;1.15;;;;;;;;;;1484769;40;20067;-64
2021/05/14 04:16:12;;;;;;;2.35;1.67;;;;;;;;;;1484619;40;20304;-63
2021/05/14 04:17:14;;;;;;;1.63;1.08;;;;;;;;;;1484610;40;20072;-63
2021/05/14 04:18:14;;;;;;;3.70;1.30;;;;;;;;;;1484575;40;20281;-64
2021/05/14 04:19:16;;;;;;;1.90;1.15;;;;;;;;;;1484589;40;20036;-63
2021/05/14 04:20:17;;;;;;;2.83;1.20;;;;;;;;;;1484773;40;20036;-63
2021/05/14 04:21:18;;;;;;;2.08;1.10;;;;;;;;;;1484713;40;20025;-63
2021/05/14 04:22:19;;;;;;;3.85;1.20;;;;;;;;;;1484758;40;20029;-63
2021/05/14 04:23:20;;;;;;;2.17;1.00;;;;;;;;;;1484479;40;20029;-63
2021/05/14 04:24:23;;;;;;;1.60;1.10;;;;;;;;;;1484557;40;20388;-63
2021/05/14 04:25:25;;;;;;;2.15;1.10;;;;;;;;;;1484662;40;20068;-63
2021/05/14 04:26:26;;;;;;;3.67;1.20;;;;;;;;;;1484544;40;20388;-63
2021/05/14 04:27:27;;;;;;;1.83;1.17;;;;;;;;;;1484784;40;20024;-63
2021/05/14 04:28:28;;;;;;;2.90;1.20;;;;;;;;;;1484763;40;20025;-63
2021/05/14 04:29:29;;;;;;;2.80;1.20;;;;;;;;;;1484579;40;20347;-63
2021/05/14 04:30:31;;;;;;;2.20;1.23;;;;;;;;;;1484556;40;20024;-63
2021/05/14 04:31:32;;;;;;;2.53;1.20;;;;;;;;;;1484736;40;20032;-63
2021/05/14 04:32:33;;;;;;;1.48;0.82;;;;;;;;;;1484474;40;20395;-64
2021/05/14 04:33:34;;;;;;;5.43;1.30;;;;;;;;;;1484479;40;20033;-63
2021/05/14 04:34:35;;;;;;;2.13;1.20;;;;;;;;;;1484615;40;20276;-63
2021/05/14 04:35:36;;;;;;;3.22;1.15;;;;;;;;;;1484746;40;20040;-64
2021/05/14 04:36:37;;;;;;;1.70;1.20;;;;;;;;;;1484766;40;20024;-63
2021/05/14 04:37:39;;;;;;;2.97;1.20;;;;;;;;;;1484519;40;20044;-63
2021/05/14 04:38:40;;;;;;;2.05;1.15;;;;;;;;;;1484528;40;20028;-64
2021/05/14 04:39:42;;;;;;;2.22;1.10;;;;;;;;;;1484754;40;20029;-63
2021/05/14 04:40:43;;;;;;;2.53;1.00;;;;;;;;;;1484499;40;20036;-63
2021/05/14 04:41:44;;;;;;;2.30;1.10;;;;;;;;;;1483995;40;20028;-63
2021/05/14 04:42:45;;;;;;;1.92;1.20;;;;;;;;;;1484640;40;20029;-63
2021/05/14 04:43:47;;;;;;;2.10;0.95;;;;;;;;;;1484612;40;20295;-63
2021/05/14 04:44:48;;;;;;;1.92;1.20;;;;;;;;;;1484624;40;20041;-63
2021/05/14 04:45:49;;;;;;;2.58;1.30;;;;;;;;;;1484694;40;20051;-63
2021/05/14 04:46:51;;;;;;;2.25;1.30;;;;;;;;;;1484703;40;20036;-64
2021/05/14 04:47:52;;;;;;;2.65;1.13;;;;;;;;;;1484604;40;20029;-63
2021/05/14 04:48:54;;;;;;;6.47;1.50;;;;;;;;;;1484540;40;20032;-63
2021/05/14 04:49:55;;;;;;;2.58;1.20;;;;;;;;;;1484520;40;20377;-63
2021/05/14 04:50:56;;;;;;;2.85;1.10;;;;;;;;;;1484694;40;20029;-63
2021/05/14 04:51:58;;;;;;;2.80;1.27;;;;;;;;;;1484442;40;20028;-64
2021/05/14 04:53:02;;;;;;;2.00;1.10;;;;;;;;;;1484395;40;20056;-64
2021/05/14 04:54:05;;;;;;;2.17;1.13;;;;;;;;;;1484512;40;20137;-63
2021/05/14 04:55:06;;;;;;;1.92;1.30;;;;;;;;;;1484563;40;20028;-63
2021/05/14 04:56:09;;;;;;;2.25;1.20;;;;;;;;;;1484521;40;20114;-63
2021/05/14 04:57:10;;;;;;;2.88;1.35;;;;;;;;;;1484602;40;20055;-64
2021/05/14 04:58:12;;;;;;;2.13;1.08;;;;;;;;;;1484539;40;20036;-64
2021/05/14 04:59:12;;;;;;;2.20;1.20;;;;;;;;;;1484470;40;20410;-64
2021/05/14 05:00:15;;;;;;;1.73;1.00;;;;;;;;;;1484648;40;20118;-63
2021/05/14 05:01:17;;;;;;;2.40;1.00;;;;;;;;;;1484463;40;20035;-64
2021/05/14 05:02:18;;;;;;;2.20;1.15;;;;;;;;;;1484549;40;20032;-63
2021/05/14 05:03:19;;;;;;;3.00;1.20;;;;;;;;;;1484423;40;20060;-63
2021/05/14 05:04:20;;;;;;;2.00;1.13;;;;;;;;;;1484662;40;20028;-63
2021/05/14 05:05:22;;;;;;;1.80;1.20;;;;;;;;;;1484625;40;20021;-64
2021/05/14 05:06:23;;;;;;;3.95;1.50;;;;;;;;;;1484669;40;20037;-63
2021/05/14 05:07:24;;;;;;;1.75;1.00;;;;;;;;;;1484440;40;20412;-63
2021/05/14 05:08:25;;;;;;;2.63;1.20;;;;;;;;;;1484461;40;20032;-63
2021/05/14 05:09:26;;;;;;;2.15;1.23;;;;;;;;;;1484436;40;20028;-63
2021/05/14 05:10:27;;;;;;;3.70;1.20;;;;;;;;;;1484641;40;20028;-64
2021/05/14 05:11:29;;;;;;;3.35;1.23;;;;;;;;;;1484512;40;20025;-64
2021/05/14 05:12:30;;;;;;;2.25;1.20;;;;;;;;;;1484493;40;20072;-63
2021/05/14 05:13:32;;;;;;;2.80;1.30;;;;;;;;;;1484899;40;20029;-64
2021/05/14 05:14:33;;;;;;;2.83;1.08;;;;;;;;;;1484445;40;20041;-63
2021/05/14 05:15:34;;;;;;;2.83;1.52;;;;;;;;;;1484452;40;20040;-63
2021/05/14 05:16:35;;;;;;;2.45;1.25;;;;;;;;;;1484577;40;20035;-64
2021/05/14 05:17:36;;;;;;;3.53;1.38;;;;;;;;;;1484444;40;20028;-64
2021/05/14 05:18:37;;;;;;;2.30;1.50;;;;;;;;;;1484530;40;20028;-64
2021/05/14 05:19:38;;;;;;;2.53;1.55;;;;;;;;;;1484620;40;20109;-64
2021/05/14 05:20:39;;;;;;;2.10;1.30;;;;;;;;;;1484429;40;20029;-64
2021/05/14 05:21:41;;;;;;;2.58;1.25;;;;;;;;;;1484415;40;20304;-64
2021/05/14 05:22:42;;;;;;;2.78;1.65;;;;;;;;;;1484325;40;20126;-64
2021/05/14 05:23:43;;;;;;;2.00;1.23;;;;;;;;;;1484426;40;20276;-64
2021/05/14 05:24:44;;;;;;;1.90;1.15;;;;;;;;;;1484429;40;20040;-64
2021/05/14 05:25:45;;;;;;;3.80;1.85;;;;;;;;;;1484375;40;20031;-64
2021/05/14 05:26:47;;;;;;;2.40;1.63;;;;;;;;;;1484426;40;20024;-64
2021/05/14 05:27:48;;;;;;;3.35;1.30;;;;;;;;;;1484396;40;20032;-64
2021/05/14 05:28:49;;;;;;;2.63;1.42;;;;;;;;;;1484619;40;20069;-63
2021/05/14 05:29:50;;;;;;;2.00;1.30;;;;;;;;;;1484539;40;20092;-63
2021/05/14 05:30:51;;;;;;;2.72;1.60;;;;;;;;;;1484394;40;20086;-63
2021/05/14 05:31:53;;;;;;;2.95;1.40;;;;;;;;;;1484612;40;20035;-63
2021/05/14 05:32:54;;;;;;;2.17;1.23;;;;;;;;;;1484499;40;20113;-64
2021/05/14 05:33:55;;;;;;;2.92;1.40;;;;;;;;;;1484567;40;20029;-64
2021/05/14 05:34:57;;;;;;;2.65;1.40;;;;;;;;;;1484511;40;20033;-64
2021/05/14 05:35:58;;;;;;;2.08;1.27;;;;;;;;;;1484331;40;20029;-64
2021/05/14 05:36:59;;;;;;;2.97;1.40;;;;;;;;;;1484566;40;20036;-64
2021/05/14 05:38:00;;;;;;;1.75;1.20;;;;;;;;;;1484393;40;20035;-63
2021/05/14 05:39:02;;;;;;;2.65;1.20;;;;;;;;;;1484509;40;20025;-64
2021/05/14 05:40:04;;;;;;;2.97;1.10;;;;;;;;;;1484400;40;20036;-63
2021/05/14 05:41:06;;;;;;;2.58;1.48;;;;;;;;;;1484337;40;20033;-64
2021/05/14 05:42:09;;;;;;;2.85;1.13;;;;;;;;;;1484369;40;20051;-63
2021/05/14 05:43:11;;;;;;;2.17;1.40;;;;;;;;;;1484238;40;20395;-64
2021/05/14 05:44:13;;;;;;;2.40;1.25;;;;;;;;;;1484313;40;20378;-63
2021/05/14 05:45:13;;;;;;;2.28;1.20;;;;;;;;;;1484357;40;20021;-64
2021/05/14 05:46:15;;;;;;;3.17;1.30;;;;;;;;;;1484493;40;20032;-63
2021/05/14 05:47:16;;;;;;;5.25;1.50;;;;;;;;;;1484536;40;20039;-64
2021/05/14 05:48:18;;;;;;;1.90;1.02;;;;;;;;;;1484606;40;20036;-64
2021/05/14 05:49:20;;;;;;;2.75;1.00;;;;;;;;;;1484344;40;20080;-64
2021/05/14 05:50:22;;;;;;;2.60;1.10;;;;;;;;;;1484406;40;20032;-64
2021/05/14 05:51:23;;;;;;;2.40;1.25;;;;;;;;;;1484374;40;20393;-64
2021/05/14 05:52:24;;;;;;;2.58;1.33;;;;;;;;;;1484253;40;20033;-64
2021/05/14 05:53:25;;;;;;;1.80;1.00;;;;;;;;;;1485023;40;20055;-64
2021/05/14 05:54:26;;;;;;;1.70;1.00;;;;;;;;;;1485258;40;20280;-64
2021/05/14 05:55:27;;;;;;;1.95;1.10;;;;;;;;;;1484934;40;20040;-64
2021/05/14 05:56:28;;;;;;;2.22;0.95;;;;;;;;;;1484954;40;20029;-64
2021/05/14 05:57:30;;;;;;;2.05;1.05;;;;;;;;;;1485137;40;20033;-64
2021/05/14 05:58:32;;;;;;;2.28;1.08;;;;;;;;;;1485119;40;20028;-64
2021/05/14 05:59:35;;;;;;;2.28;0.95;;;;;;;;;;1485112;40;20048;-64
2021/05/14 06:00:37;;;;;;;2.03;0.90;;;;;;;;;;1485141;40;20035;-63
2021/05/14 06:01:37;;;;;;;1.83;0.95;;;;;;;;;;1485096;40;20024;-64
2021/05/14 06:02:39;;;;;;;1.77;1.10;;;;;;;;;;1485020;40;20057;-64
2021/05/14 06:03:40;;;;;;;2.33;1.00;;;;;;;;;;1484927;40;20326;-64
2021/05/14 06:04:41;;;;;;;2.53;1.02;;;;;;;;;;1484920;40;20029;-64
2021/05/14 06:05:42;;;;;;;3.53;1.02;;;;;;;;;;1484952;40;20033;-64
2021/05/14 06:06:44;;;;;;;1.77;0.90;;;;;;;;;;1485063;40;20040;-64
2021/05/14 06:07:44;;;;;;;1.67;0.82;;;;;;;;;;1484918;40;20392;-64
2021/05/14 06:08:46;;;;;;;1.45;0.85;;;;;;;;;;1484928;40;20040;-64
2021/05/14 06:09:47;;;;;;;2.13;1.20;;;;;;;;;;1484948;40;20055;-64
2021/05/14 06:10:51;;;;;;;1.35;0.82;;;;;;;;;;1485032;40;20032;-64
2021/05/14 06:11:52;;;;;;;1.65;0.90;;;;;;;;;;1484939;40;20029;-64
2021/05/14 06:12:54;;;;;;;1.88;1.10;;;;;;;;;;1484831;40;20032;-64